createdAt,value
2023-02-15T00:00:11.316Z,13.43
2023-02-15T00:02:38.883Z,12.67
2023-02-15T00:05:07.091Z,13.20
2023-02-15T00:07:34.515Z,12.97
2023-02-15T00:10:02.038Z,12.90
2023-02-15T00:12:29.491Z,13.90
2023-02-15T00:14:58.733Z,13.53
2023-02-15T00:20:26.366Z,13.13
2023-02-15T00:22:53.811Z,12.40
2023-02-15T00:25:24.470Z,13.65
2023-02-15T00:27:52.078Z,13.73
2023-02-15T00:30:21.029Z,12.87
2023-02-15T00:32:49.244Z,13.43
2023-02-15T00:35:16.939Z,13.53
2023-02-15T00:40:54.263Z,13.37
2023-02-15T00:43:22.000Z,13.93
2023-02-15T00:45:50.974Z,14.10
2023-02-15T00:48:19.427Z,12.77
2023-02-15T00:50:47.105Z,12.17
2023-02-15T00:56:17.727Z,13.53
2023-02-15T00:58:45.236Z,13.33
2023-02-15T01:01:15.908Z,13.93
2023-02-15T01:03:43.730Z,13.23
2023-02-15T01:06:11.332Z,12.77
2023-02-15T01:08:39.060Z,12.50
2023-02-15T01:11:07.477Z,13.73
2023-02-15T01:13:35.295Z,12.77
2023-02-15T01:16:03.760Z,12.57
2023-02-15T01:18:33.038Z,13.73
2023-02-15T01:21:00.691Z,11.47
2023-02-15T01:23:28.289Z,12.43
2023-02-15T01:25:55.710Z,12.80
2023-02-15T01:28:23.165Z,12.33
2023-02-15T01:33:54.704Z,13.47
2023-02-15T01:36:22.163Z,13.67
2023-02-15T01:38:50.286Z,11.17
2023-02-15T01:41:24.657Z,12.40
2023-02-15T01:43:54.545Z,12.23
2023-02-15T01:46:25.360Z,11.53
2023-02-15T01:48:56.218Z,12.67
2023-02-15T01:51:25.798Z,12.57
2023-02-15T01:53:56.173Z,12.03
2023-02-15T01:56:26.346Z,12.13
2023-02-15T02:02:01.924Z,11.27
2023-02-15T02:04:35.098Z,12.93
2023-02-15T02:07:02.800Z,13.07
2023-02-15T02:09:32.683Z,12.13
2023-02-15T02:14:49.556Z,12.83
2023-02-15T02:17:24.235Z,14.30
2023-02-15T02:20:18.053Z,13.23
2023-02-15T02:23:17.846Z,12.83
2023-02-15T02:26:10.388Z,13.37
2023-02-15T02:28:58.071Z,23.35
2023-02-15T02:31:43.963Z,16.17
2023-02-15T02:37:21.394Z,13.87
2023-02-15T02:39:54.368Z,14.07
2023-02-15T02:42:26.210Z,14.00
2023-02-15T02:44:58.907Z,14.57
2023-02-15T02:47:31.470Z,13.90
2023-02-15T02:50:01.267Z,13.67
2023-02-15T02:55:31.300Z,14.63
2023-02-15T02:58:05.296Z,12.37
2023-02-15T03:00:36.560Z,13.50
2023-02-15T03:03:06.942Z,14.27
2023-02-15T03:05:36.135Z,14.50
2023-02-15T03:08:06.951Z,14.03
2023-02-15T03:10:36.766Z,12.90
2023-02-15T03:13:06.012Z,13.57
2023-02-15T03:15:50.153Z,14.03
2023-02-15T03:18:19.010Z,13.73
2023-02-15T03:20:46.763Z,13.63
2023-02-15T03:23:16.197Z,12.07
2023-02-15T03:25:48.511Z,13.27
2023-02-15T03:28:21.322Z,12.93
2023-02-15T03:30:51.311Z,13.87
2023-02-15T03:33:19.485Z,12.47
2023-02-15T03:35:51.350Z,13.17
2023-02-15T03:38:22.050Z,14.03
2023-02-15T03:41:09.542Z,12.87
2023-02-15T03:43:44.752Z,13.07
2023-02-15T03:46:15.647Z,13.10
2023-02-15T03:48:45.390Z,12.73
2023-02-15T03:51:34.092Z,13.87
2023-02-15T03:54:02.776Z,12.73
2023-02-15T03:56:31.710Z,13.10
2023-02-15T03:59:17.497Z,12.73
2023-02-15T04:01:59.279Z,13.43
2023-02-15T04:04:30.595Z,14.10
2023-02-15T04:06:58.078Z,12.47
2023-02-15T04:09:43.102Z,13.23
2023-02-15T04:12:11.909Z,13.03
2023-02-15T04:14:43.025Z,12.90
2023-02-15T04:17:11.506Z,12.90
2023-02-15T04:19:56.612Z,12.87
2023-02-15T04:22:41.660Z,14.20
2023-02-15T04:25:12.482Z,12.57
2023-02-15T04:27:42.521Z,12.80
2023-02-15T04:30:12.143Z,14.03
2023-02-15T04:32:39.913Z,13.70
2023-02-15T04:35:08.207Z,12.80
2023-02-15T04:37:36.109Z,14.07
2023-02-15T04:40:28.680Z,12.83
2023-02-15T04:42:57.439Z,12.07
2023-02-15T04:48:27.534Z,12.80
2023-02-15T04:50:54.978Z,13.57
2023-02-15T04:53:22.380Z,12.67
2023-02-15T04:55:49.830Z,12.80
2023-02-15T04:58:18.723Z,12.80
2023-02-15T05:00:46.154Z,13.10
2023-02-15T05:03:13.564Z,11.83
2023-02-15T05:05:41.418Z,11.60
2023-02-15T05:10:57.350Z,10.77
2023-02-15T05:13:26.651Z,12.50
2023-02-15T05:15:54.970Z,11.60
2023-02-15T05:18:23.394Z,12.53
2023-02-15T05:20:50.994Z,11.67
2023-02-15T05:23:18.443Z,13.30
2023-02-15T05:28:39.907Z,11.43
2023-02-15T05:31:09.416Z,12.07
2023-02-15T05:33:37.242Z,12.77
2023-02-15T05:36:05.915Z,13.53
2023-02-15T05:38:33.789Z,12.10
2023-02-15T05:41:01.269Z,13.10
2023-02-15T05:46:39.989Z,12.10
2023-02-15T05:49:07.412Z,11.77
2023-02-15T05:51:34.847Z,11.87
2023-02-15T05:54:02.270Z,11.57
2023-02-15T05:56:29.694Z,10.97
2023-02-15T06:02:00.753Z,11.67
2023-02-15T06:04:28.431Z,12.83
2023-02-15T06:06:55.856Z,12.50
2023-02-15T06:12:09.354Z,13.27
2023-02-15T06:14:36.797Z,13.70
2023-02-15T06:17:05.558Z,12.37
2023-02-15T06:19:33.091Z,12.13
2023-02-15T06:22:00.760Z,12.17
2023-02-15T06:24:28.240Z,11.13
2023-02-15T06:29:49.544Z,11.30
2023-02-15T06:32:18.354Z,12.27
2023-02-15T06:34:47.085Z,12.43
2023-02-15T06:37:15.963Z,12.27
2023-02-15T06:39:43.890Z,12.13
2023-02-15T06:42:11.310Z,12.97
2023-02-15T06:44:38.738Z,12.00
2023-02-15T06:47:06.223Z,12.90
2023-02-15T06:49:34.971Z,12.83
2023-02-15T06:52:02.422Z,11.23
2023-02-15T06:54:29.843Z,11.43
2023-02-15T06:56:57.328Z,11.87
2023-02-15T06:59:24.748Z,13.43
2023-02-15T07:01:52.217Z,12.13
2023-02-15T07:04:19.770Z,11.90
2023-02-15T07:09:37.248Z,12.73
2023-02-15T07:12:22.727Z,13.47
2023-02-15T07:14:50.274Z,14.57
2023-02-15T07:17:35.088Z,13.73
2023-02-15T07:20:03.240Z,14.90
2023-02-15T07:22:30.678Z,14.10
2023-02-15T07:27:59.457Z,13.97
2023-02-15T07:30:26.967Z,15.30
2023-02-15T07:35:28.514Z,14.27
2023-02-15T07:37:56.178Z,14.90
2023-02-15T07:40:24.260Z,15.70
2023-02-15T07:45:41.844Z,15.03
2023-02-15T07:48:09.683Z,14.60
2023-02-15T07:50:37.129Z,16.77
2023-02-15T07:53:04.861Z,14.27
2023-02-15T07:58:21.377Z,15.40
2023-02-15T08:00:59.400Z,14.87
2023-02-15T08:03:27.824Z,16.00
2023-02-15T08:05:58.838Z,15.60
2023-02-15T08:11:34.569Z,15.77
2023-02-15T08:14:04.807Z,14.90
2023-02-15T08:16:35.630Z,14.83
2023-02-15T08:19:05.811Z,15.00
2023-02-15T08:21:34.169Z,14.67
2023-02-15T08:24:01.845Z,14.60
2023-02-15T08:26:32.758Z,15.53
2023-02-15T08:29:00.993Z,14.63
2023-02-15T08:31:29.107Z,14.93
2023-02-15T08:33:59.056Z,15.83
2023-02-15T08:36:28.414Z,16.50
2023-02-15T08:38:55.961Z,15.63
2023-02-15T08:41:25.089Z,16.00
2023-02-15T08:43:54.913Z,17.13
2023-02-15T08:46:23.700Z,15.77
2023-02-15T08:48:51.674Z,16.17
2023-02-15T08:51:22.207Z,16.17
2023-02-15T08:53:50.960Z,16.73
2023-02-15T08:56:19.618Z,15.83
2023-02-15T09:01:36.839Z,15.77
2023-02-15T09:04:06.196Z,16.37
2023-02-15T09:06:35.019Z,17.20
2023-02-15T09:09:02.934Z,17.03
2023-02-15T09:11:31.589Z,18.23
2023-02-15T09:14:01.339Z,18.67
2023-02-15T09:16:31.449Z,18.27
2023-02-15T09:18:59.927Z,17.23
2023-02-15T09:21:28.470Z,17.10
2023-02-15T09:24:00.556Z,15.97
2023-02-15T09:26:29.355Z,16.97
2023-02-15T09:28:58.507Z,18.70
2023-02-15T09:34:18.685Z,15.90
2023-02-15T09:36:46.536Z,15.47
2023-02-15T09:39:16.604Z,16.03
2023-02-15T09:41:59.161Z,15.70
2023-02-15T09:44:37.602Z,17.97
2023-02-15T09:47:42.494Z,15.07
2023-02-15T09:50:14.785Z,16.27
2023-02-15T09:55:53.367Z,14.87
2023-02-15T09:58:27.382Z,16.40
2023-02-15T10:01:01.091Z,14.57
2023-02-15T10:03:42.832Z,14.70
2023-02-15T10:06:27.794Z,13.97
2023-02-15T10:08:57.066Z,15.17
2023-02-15T10:11:41.379Z,14.10
2023-02-15T10:14:29.805Z,15.17
2023-02-15T10:17:08.243Z,15.30
2023-02-15T10:22:30.250Z,17.37
2023-02-15T10:25:12.798Z,15.00
2023-02-15T10:27:44.079Z,15.43
2023-02-15T10:30:13.338Z,16.47
2023-02-15T10:32:53.183Z,15.47
2023-02-15T10:35:26.404Z,16.10
2023-02-15T10:38:07.150Z,16.93
2023-02-15T10:40:43.047Z,14.30
2023-02-15T10:46:14.517Z,15.60
2023-02-15T10:48:54.318Z,15.37
2023-02-15T10:54:27.905Z,15.60
2023-02-15T10:57:02.812Z,15.53
2023-02-15T10:59:39.695Z,14.80
2023-02-15T11:05:21.079Z,13.47
2023-02-15T11:07:49.991Z,14.23
2023-02-15T11:10:27.581Z,13.50
2023-02-15T11:12:57.321Z,12.93
2023-02-15T11:15:29.116Z,14.60
2023-02-15T11:17:59.687Z,14.13
2023-02-15T11:20:31.998Z,12.50
2023-02-15T11:23:00.141Z,13.37
2023-02-15T11:25:31.033Z,14.00
2023-02-15T11:27:58.574Z,13.27
2023-02-15T11:30:29.544Z,13.57
2023-02-15T11:32:58.535Z,12.57
2023-02-15T11:35:31.178Z,13.73
2023-02-15T11:38:04.649Z,14.97
2023-02-15T11:40:34.982Z,13.07
2023-02-15T11:46:04.764Z,13.60
2023-02-15T11:51:33.621Z,13.20
2023-02-15T11:54:01.227Z,14.00
2023-02-15T11:59:32.305Z,14.50
2023-02-15T12:01:59.751Z,13.70
2023-02-15T12:04:28.431Z,15.03
2023-02-15T12:07:02.757Z,14.93
2023-02-15T12:09:35.802Z,13.90
2023-02-15T12:12:24.818Z,14.30
2023-02-15T12:17:53.451Z,14.47
2023-02-15T12:20:27.349Z,14.43
2023-02-15T12:26:01.823Z,14.13
2023-02-15T12:28:34.754Z,13.63
2023-02-15T12:31:04.797Z,14.30
2023-02-15T12:33:35.850Z,13.27
2023-02-15T12:36:06.484Z,14.43
2023-02-15T12:38:35.230Z,14.60
2023-02-15T12:41:05.636Z,14.43
2023-02-15T12:46:37.555Z,14.50
2023-02-15T12:52:26.364Z,14.20
2023-02-15T12:54:53.838Z,14.10
2023-02-15T12:57:28.194Z,14.73
2023-02-15T12:59:57.378Z,14.53
2023-02-15T13:02:30.742Z,14.63
2023-02-15T13:04:59.810Z,14.17
2023-02-15T13:07:33.186Z,14.03
2023-02-15T13:10:00.750Z,13.37
2023-02-15T13:12:31.497Z,14.37
2023-02-15T13:15:00.324Z,13.50
2023-02-15T13:17:30.752Z,13.80
2023-02-15T13:20:01.207Z,14.47
2023-02-15T13:25:35.449Z,14.37
2023-02-15T13:28:05.477Z,13.80
2023-02-15T13:30:36.243Z,14.17
2023-02-15T13:33:06.290Z,13.87
2023-02-15T13:35:39.319Z,14.37
2023-02-15T13:41:07.099Z,14.23
2023-02-15T13:43:43.496Z,14.20
2023-02-15T13:46:19.734Z,15.33
2023-02-15T13:48:56.671Z,14.60
2023-02-15T13:51:28.698Z,14.17
2023-02-15T13:54:12.051Z,14.97
2023-02-15T13:56:50.082Z,14.47
2023-02-15T13:59:46.524Z,14.23
2023-02-15T14:05:23.261Z,14.13
2023-02-15T14:10:49.906Z,14.57
2023-02-15T14:16:34.214Z,14.53
2023-02-15T14:19:07.121Z,14.00
2023-02-15T14:21:38.495Z,14.70
2023-02-15T14:27:16.801Z,13.97
2023-02-15T14:29:50.334Z,13.77
2023-02-15T14:32:22.228Z,13.33
2023-02-15T14:34:52.855Z,14.07
2023-02-15T14:37:29.853Z,14.20
2023-02-15T14:40:17.549Z,13.80
2023-02-15T14:42:50.054Z,14.10
2023-02-15T14:45:22.598Z,13.70
2023-02-15T14:47:55.747Z,13.73
2023-02-15T14:50:45.290Z,13.53
2023-02-15T14:56:18.377Z,13.23
2023-02-15T14:58:58.107Z,14.13
2023-02-15T15:01:28.508Z,13.90
2023-02-15T15:03:58.328Z,13.60
2023-02-15T15:06:28.270Z,13.70
2023-02-15T15:09:00.343Z,14.20
2023-02-15T15:11:56.558Z,14.07
2023-02-15T15:17:48.854Z,13.80
2023-02-15T15:20:42.820Z,13.50
2023-02-15T15:23:42.804Z,12.87
2023-02-15T15:26:25.204Z,12.97
2023-02-15T15:28:57.608Z,13.83
2023-02-15T15:34:46.076Z,13.67
2023-02-15T15:37:31.811Z,12.40
2023-02-15T15:43:55.675Z,12.93
2023-02-15T15:46:36.546Z,13.07
2023-02-15T15:49:05.027Z,12.77
2023-02-15T15:51:34.180Z,12.60
2023-02-15T15:54:04.793Z,12.90
2023-02-15T15:56:35.622Z,13.87
2023-02-15T15:59:04.819Z,13.90
2023-02-15T16:04:36.322Z,14.10
2023-02-15T16:07:16.523Z,13.87
2023-02-15T16:10:01.032Z,13.60
2023-02-15T16:12:30.225Z,12.63
2023-02-15T16:14:57.994Z,13.73
2023-02-15T16:17:27.346Z,13.27
2023-02-15T16:19:57.776Z,12.67
2023-02-15T16:22:27.501Z,13.17
2023-02-15T16:27:55.015Z,12.10
2023-02-15T16:30:28.322Z,13.97
2023-02-15T16:35:56.473Z,13.03
2023-02-15T16:38:32.974Z,13.73
2023-02-15T16:41:02.191Z,13.37
2023-02-15T16:43:32.469Z,12.23
2023-02-15T16:49:03.180Z,12.87
2023-02-15T16:51:32.067Z,13.80
2023-02-15T16:54:05.819Z,12.67
2023-02-15T16:56:33.880Z,12.43
2023-02-15T16:59:04.176Z,12.23
2023-02-15T17:01:33.289Z,12.67
2023-02-15T17:04:15.131Z,11.93
2023-02-15T17:06:42.604Z,13.00
2023-02-15T17:09:19.193Z,12.87
2023-02-15T17:11:46.633Z,13.10
2023-02-15T17:17:26.777Z,12.57
2023-02-15T17:19:55.690Z,13.03
2023-02-15T17:22:25.014Z,12.93
2023-02-15T17:25:00.274Z,13.53
2023-02-15T17:27:29.411Z,13.93
2023-02-15T17:30:25.548Z,14.10
2023-02-15T17:32:59.355Z,14.00
2023-02-15T17:35:27.918Z,13.90
2023-02-15T17:38:07.136Z,13.37
2023-02-15T17:40:36.523Z,13.53
2023-02-15T17:43:04.004Z,12.97
2023-02-15T17:45:36.260Z,14.30
2023-02-15T17:48:06.472Z,13.87
2023-02-15T17:50:34.760Z,14.00
2023-02-15T17:53:02.857Z,13.70
2023-02-15T17:55:35.238Z,14.67
2023-02-15T17:58:04.458Z,16.10
2023-02-15T18:00:50.220Z,17.33
2023-02-15T18:03:36.637Z,14.37
2023-02-15T18:06:21.797Z,14.47
2023-02-15T18:09:08.520Z,15.83
2023-02-15T18:11:37.700Z,14.87
2023-02-15T18:14:06.306Z,14.23
2023-02-15T18:19:37.956Z,13.87
2023-02-15T18:22:06.771Z,14.83
2023-02-15T18:24:34.214Z,16.70
2023-02-15T18:27:01.841Z,15.67
2023-02-15T18:32:19.426Z,15.37
2023-02-15T18:34:48.796Z,15.67
2023-02-15T18:40:04.904Z,14.90
2023-02-15T18:42:35.072Z,14.10
2023-02-15T18:45:05.774Z,14.43
2023-02-15T18:47:33.195Z,14.43
2023-02-15T18:50:01.927Z,15.73
2023-02-15T18:52:33.972Z,14.83
2023-02-15T18:55:04.139Z,15.63
2023-02-15T18:57:31.595Z,14.70
2023-02-15T19:03:00.094Z,16.10
2023-02-15T19:05:30.325Z,16.10
2023-02-15T19:07:58.394Z,17.50
2023-02-15T19:10:26.932Z,15.87
2023-02-15T19:12:56.003Z,15.73
2023-02-15T19:15:25.822Z,17.10
2023-02-15T19:17:53.527Z,17.23
2023-02-15T19:20:23.198Z,16.57
2023-02-15T19:22:53.266Z,16.37
2023-02-15T19:25:23.224Z,15.90
2023-02-15T19:27:50.964Z,16.17
2023-02-15T19:30:19.969Z,17.03
2023-02-15T19:32:47.442Z,16.00
2023-02-15T19:35:15.945Z,15.80
2023-02-15T19:37:45.427Z,14.73
2023-02-15T19:40:21.400Z,16.37
2023-02-15T19:42:48.994Z,17.80
2023-02-15T19:47:57.463Z,17.03
2023-02-15T19:50:26.502Z,16.80
2023-02-15T19:52:53.971Z,16.67
2023-02-15T19:58:24.233Z,16.80
2023-02-15T20:00:52.725Z,16.43
2023-02-15T20:03:21.896Z,16.47
2023-02-15T20:05:49.833Z,16.83
2023-02-15T20:08:19.254Z,18.53
2023-02-15T20:10:46.918Z,18.60
2023-02-15T20:13:15.753Z,17.73
2023-02-15T20:16:07.167Z,17.70
2023-02-15T20:18:36.074Z,18.00
2023-02-15T20:21:04.695Z,16.87
2023-02-15T20:23:35.092Z,15.50
2023-02-15T20:26:04.020Z,16.07
2023-02-15T20:28:32.490Z,16.57
2023-02-15T20:31:00.538Z,16.23
2023-02-15T20:33:28.121Z,16.10
2023-02-15T20:35:57.008Z,16.57
2023-02-15T20:38:26.663Z,16.77
2023-02-15T20:43:25.496Z,16.87
2023-02-15T20:45:52.925Z,18.27
2023-02-15T20:48:20.394Z,18.53
2023-02-15T20:50:47.847Z,17.53
2023-02-15T20:53:16.651Z,18.17
2023-02-15T20:55:44.058Z,14.23
2023-02-15T20:58:21.142Z,16.70
2023-02-15T21:00:48.711Z,16.37
2023-02-15T21:03:22.290Z,15.20
2023-02-15T21:05:50.411Z,15.90
2023-02-15T21:08:21.725Z,15.97
2023-02-15T21:10:50.887Z,15.33
2023-02-15T21:13:22.084Z,16.07
2023-02-15T21:15:50.002Z,16.03
2023-02-15T21:18:20.487Z,16.20
2023-02-15T21:20:50.108Z,16.43
2023-02-15T21:23:21.669Z,16.53
2023-02-15T21:25:49.317Z,16.33
2023-02-15T21:28:19.651Z,17.90
2023-02-15T21:30:47.525Z,17.63
2023-02-15T21:33:15.225Z,18.63
2023-02-15T21:35:43.230Z,18.77
2023-02-15T21:38:14.832Z,17.20
2023-02-15T21:40:44.371Z,17.80
2023-02-15T21:43:33.936Z,24.90
2023-02-15T21:46:23.784Z,25.83
2023-02-15T21:48:51.277Z,19.23
2023-02-15T21:51:36.069Z,17.80
2023-02-15T21:54:03.471Z,16.03
2023-02-15T21:56:32.295Z,16.47
2023-02-15T21:58:59.708Z,14.93
2023-02-15T22:01:28.607Z,15.50
2023-02-15T22:06:45.005Z,14.80
2023-02-15T22:09:16.815Z,14.50
2023-02-15T22:11:46.030Z,13.90
2023-02-15T22:14:34.019Z,15.57
2023-02-15T22:20:00.032Z,14.60
2023-02-15T22:22:29.993Z,16.07
2023-02-15T22:24:57.604Z,17.23
2023-02-15T22:27:28.109Z,15.83
2023-02-15T22:32:53.863Z,16.30
2023-02-15T22:35:24.607Z,15.73
2023-02-15T22:37:52.051Z,17.43
2023-02-15T22:40:20.754Z,16.67
2023-02-15T22:45:48.389Z,16.07
2023-02-15T22:48:20.033Z,16.37
2023-02-15T22:53:46.034Z,14.93
2023-02-15T22:59:18.403Z,14.80
2023-02-15T23:01:47.814Z,14.70
2023-02-15T23:07:15.719Z,13.27
2023-02-15T23:09:43.373Z,13.93
2023-02-15T23:12:24.291Z,14.20
2023-02-15T23:14:54.468Z,14.03
2023-02-15T23:20:30.719Z,12.67
2023-02-15T23:22:58.120Z,14.60
2023-02-15T23:25:27.907Z,13.87
2023-02-15T23:27:57.829Z,14.80
2023-02-15T23:30:25.330Z,14.23
2023-02-15T23:32:53.255Z,13.17
2023-02-15T23:38:25.672Z,15.10
2023-02-15T23:44:04.899Z,14.63
2023-02-15T23:46:39.678Z,13.83
2023-02-15T23:49:14.670Z,15.47
2023-02-15T23:54:46.317Z,14.40
2023-02-15T23:57:14.001Z,14.30
2023-02-15T23:59:43.072Z,14.03
